Terminal Aerodrome Forecast
Issued by NWS

Home | Current Version | Previous Version | Text Only | Print | Product List | Glossary On
Versions: 1 2 3 4 5 6 7 8 9 10 11 12 13 14 15
000
FTUS45 KFGZ 221100
TAFGCN
TAF
KGCN 221120Z 2212/2312 VRB02KT P6SM SKC
      TEMPO 2212/2214 5SM FU
     FM221800 21009KT P6SM SCT100
     FM230130 VRB05KT P6SM BKN100=

USA.gov is the U.S. government's official web portal to all federal, state and local government web resources and services.